createdAt,value
2022-09-26T00:01:37.762Z,58.51
2022-09-26T00:04:15.733Z,58.59
2022-09-26T00:06:43.592Z,58.84
2022-09-26T00:09:11.036Z,58.49
2022-09-26T00:11:38.674Z,58.71
2022-09-26T00:14:11.661Z,58.42
2022-09-26T00:16:38.959Z,58.76
2022-09-26T00:19:07.170Z,58.63
2022-09-26T00:21:34.543Z,59.06
2022-09-26T00:24:02.619Z,59.26
2022-09-26T00:26:31.727Z,59.37
2022-09-26T00:29:04.381Z,59.44
2022-09-26T00:31:35.627Z,59.38
2022-09-26T00:34:03.513Z,59.45
2022-09-26T00:36:37.876Z,59.54
2022-09-26T00:39:08.376Z,59.48
2022-09-26T00:41:37.164Z,59.68
2022-09-26T00:44:46.275Z,59.57
2022-09-26T00:47:32.885Z,59.51
2022-09-26T00:50:06.371Z,59.78
2022-09-26T00:52:46.972Z,59.70
2022-09-26T00:55:18.740Z,59.62
2022-09-26T00:57:53.328Z,59.69
2022-09-26T01:00:20.655Z,59.69
2022-09-26T01:02:48.626Z,59.61
2022-09-26T01:05:19.065Z,59.55
2022-09-26T01:07:46.228Z,59.60
2022-09-26T01:10:13.697Z,59.45
2022-09-26T01:12:40.598Z,59.90
2022-09-26T01:15:09.092Z,59.72
2022-09-26T01:17:39.258Z,59.77
2022-09-26T01:20:40.449Z,59.89
2022-09-26T01:23:49.132Z,59.85
2022-09-26T01:26:59.101Z,59.93
2022-09-26T01:30:01.912Z,60.12
2022-09-26T01:33:00.527Z,60.13
2022-09-26T01:36:15.287Z,60.08
2022-09-26T01:39:26.577Z,60.26
2022-09-26T01:42:52.569Z,60.41
2022-09-26T01:45:23.037Z,60.32
2022-09-26T01:48:03.991Z,60.33
2022-09-26T01:50:53.697Z,60.53
2022-09-26T01:53:48.892Z,60.56
2022-09-26T01:56:25.695Z,60.61
2022-09-26T01:59:05.579Z,60.68
2022-09-26T02:01:39.509Z,60.62
2022-09-26T02:04:12.449Z,60.81
2022-09-26T02:06:54.597Z,61.06
2022-09-26T02:09:39.503Z,61.08
2022-09-26T02:12:14.687Z,60.87
2022-09-26T02:14:44.836Z,60.76
2022-09-26T02:17:18.019Z,60.99
2022-09-26T02:20:01.810Z,60.86
2022-09-26T02:22:33.953Z,60.98
2022-09-26T02:25:02.757Z,60.78
2022-09-26T02:27:30.050Z,61.06
2022-09-26T02:29:57.563Z,61.03
2022-09-26T02:32:32.825Z,61.31
2022-09-26T02:35:01.365Z,61.34
2022-09-26T02:37:32.224Z,61.34
2022-09-26T02:39:59.112Z,61.25
2022-09-26T02:42:49.205Z,61.60
2022-09-26T02:45:41.172Z,61.85
2022-09-26T02:48:18.950Z,62.44
2022-09-26T02:51:40.645Z,62.18
2022-09-26T02:54:39.630Z,62.36
2022-09-26T02:57:34.852Z,62.52
2022-09-26T03:00:25.630Z,62.82
2022-09-26T03:03:14.014Z,62.95
2022-09-26T03:05:44.479Z,62.88
2022-09-26T03:08:26.057Z,62.98
2022-09-26T03:10:57.026Z,62.93
2022-09-26T03:13:25.839Z,62.86
2022-09-26T03:15:56.303Z,62.81
2022-09-26T03:18:36.807Z,62.91
2022-09-26T03:21:03.804Z,62.70
2022-09-26T03:23:31.161Z,62.82
2022-09-26T03:26:10.188Z,62.92
2022-09-26T03:28:42.629Z,62.86
2022-09-26T03:31:11.405Z,62.89
2022-09-26T03:33:49.609Z,63.03
2022-09-26T03:36:16.599Z,62.98
2022-09-26T03:38:43.557Z,62.93
2022-09-26T03:41:27.696Z,62.81
2022-09-26T03:44:13.367Z,63.00
2022-09-26T03:47:00.233Z,63.18
2022-09-26T03:49:27.405Z,63.62
2022-09-26T03:51:54.341Z,63.49
2022-09-26T03:54:21.221Z,63.34
2022-09-26T03:56:49.147Z,63.53
2022-09-26T03:59:17.016Z,63.29
2022-09-26T04:01:45.260Z,63.48
2022-09-26T04:04:15.214Z,63.37
2022-09-26T04:06:44.845Z,63.06
2022-09-26T04:09:16.734Z,63.00
2022-09-26T04:11:47.082Z,63.10
2022-09-26T04:14:14.009Z,63.00
2022-09-26T04:16:42.396Z,63.03
2022-09-26T04:19:17.090Z,63.02
2022-09-26T04:21:44.008Z,62.97
2022-09-26T04:24:15.842Z,62.95
2022-09-26T04:26:44.244Z,62.91
2022-09-26T04:29:11.651Z,62.65
2022-09-26T04:31:53.741Z,62.62
2022-09-26T04:34:27.395Z,62.57
2022-09-26T04:36:54.891Z,62.39
2022-09-26T04:39:22.225Z,62.51
2022-09-26T04:41:49.137Z,62.74
2022-09-26T04:44:16.109Z,62.49
2022-09-26T04:46:43.005Z,62.62
2022-09-26T04:49:11.241Z,62.42
2022-09-26T04:51:38.243Z,62.50
2022-09-26T04:54:05.425Z,62.66
2022-09-26T04:56:37.178Z,62.51
2022-09-26T04:59:05.737Z,62.45
2022-09-26T05:01:42.224Z,62.53
2022-09-26T05:04:16.982Z,62.74
2022-09-26T05:06:43.854Z,62.53
2022-09-26T05:09:21.900Z,62.61
2022-09-26T05:11:53.941Z,62.78
2022-09-26T05:14:20.923Z,62.48
2022-09-26T05:16:49.297Z,62.69
2022-09-26T05:19:17.350Z,62.65
2022-09-26T05:22:04.402Z,62.44
2022-09-26T05:24:49.579Z,62.47
2022-09-26T05:27:18.924Z,62.50
2022-09-26T05:29:45.888Z,62.23
2022-09-26T05:32:13.826Z,62.16
2022-09-26T05:34:42.530Z,61.99
2022-09-26T05:37:13.976Z,62.00
2022-09-26T05:39:59.899Z,61.96
2022-09-26T05:42:27.894Z,62.15
2022-09-26T05:44:54.797Z,62.24
2022-09-26T05:47:21.886Z,62.09
2022-09-26T05:49:48.911Z,62.31
2022-09-26T05:52:19.022Z,62.06
2022-09-26T05:54:46.137Z,61.97
2022-09-26T05:57:53.125Z,61.89
2022-09-26T06:00:22.337Z,61.97
2022-09-26T06:02:56.519Z,61.94
2022-09-26T06:05:33.603Z,61.95
2022-09-26T06:08:17.407Z,62.16
2022-09-26T06:11:15.418Z,62.03
2022-09-26T06:13:45.550Z,62.18
2022-09-26T06:16:20.215Z,62.33
2022-09-26T06:18:50.545Z,62.56
2022-09-26T06:21:20.127Z,63.00
2022-09-26T06:23:50.769Z,62.86
2022-09-26T06:26:23.556Z,62.85
2022-09-26T06:29:00.025Z,62.88
2022-09-26T06:31:30.237Z,62.74
2022-09-26T06:34:29.184Z,62.77
2022-09-26T06:37:18.956Z,61.98
2022-09-26T06:39:45.892Z,61.79
2022-09-26T06:42:13.072Z,61.53
2022-09-26T06:45:10.561Z,61.63
2022-09-26T06:48:02.399Z,61.65
2022-09-26T06:50:32.567Z,61.54
2022-09-26T06:53:10.873Z,61.57
2022-09-26T06:55:37.963Z,61.23
2022-09-26T06:58:04.915Z,61.51
2022-09-26T07:00:46.718Z,61.33
2022-09-26T07:03:28.654Z,61.15
2022-09-26T07:06:01.893Z,61.06
2022-09-26T07:08:57.467Z,60.56
2022-09-26T07:14:06.000Z,60.83
2022-09-26T07:16:33.224Z,60.91
2022-09-26T07:19:19.270Z,60.95
2022-09-26T07:22:01.688Z,61.03
2022-09-26T07:24:46.296Z,61.25
2022-09-26T07:27:14.129Z,61.20
2022-09-26T07:29:41.363Z,61.15
2022-09-26T07:32:08.286Z,60.60
2022-09-26T07:34:53.730Z,60.38
2022-09-26T07:37:20.653Z,60.24
2022-09-26T07:39:52.639Z,60.00
2022-09-26T07:42:21.697Z,60.01
2022-09-26T07:47:54.312Z,59.35
2022-09-26T07:50:47.110Z,59.56
2022-09-26T07:53:24.222Z,59.10
2022-09-26T07:56:16.800Z,59.25
2022-09-26T07:58:58.190Z,59.53
2022-09-26T08:01:54.517Z,59.61
2022-09-26T08:04:31.543Z,59.46
2022-09-26T08:06:59.513Z,59.33
2022-09-26T08:09:26.496Z,58.96
2022-09-26T08:12:11.857Z,59.07
2022-09-26T08:14:49.881Z,58.87
2022-09-26T08:17:25.957Z,57.87
2022-09-26T08:19:52.837Z,58.02
2022-09-26T08:22:19.996Z,57.84
2022-09-26T08:24:50.937Z,57.60
2022-09-26T08:27:35.457Z,57.91
2022-09-26T08:30:02.857Z,57.47
2022-09-26T08:32:32.246Z,57.71
2022-09-26T08:35:00.052Z,57.41
2022-09-26T08:37:32.956Z,57.35
2022-09-26T08:40:20.567Z,57.22
2022-09-26T08:43:46.452Z,57.12
2022-09-26T08:47:05.165Z,56.93
2022-09-26T08:50:15.065Z,56.98
2022-09-26T08:52:58.112Z,56.86
2022-09-26T08:55:32.825Z,56.37
2022-09-26T08:58:04.315Z,56.04
2022-09-26T09:00:34.675Z,55.57
2022-09-26T09:03:21.075Z,55.75
2022-09-26T09:06:07.955Z,55.82
2022-09-26T09:08:48.533Z,55.10
2022-09-26T09:12:02.473Z,55.55
2022-09-26T09:15:07.601Z,55.50
2022-09-26T09:18:19.585Z,55.89
2022-09-26T09:22:01.725Z,53.82
2022-09-26T09:24:59.521Z,53.60
2022-09-26T09:28:03.936Z,54.42
2022-09-26T09:30:56.235Z,53.92
2022-09-26T09:33:50.277Z,54.29
2022-09-26T09:36:57.071Z,52.52
2022-09-26T09:39:49.324Z,52.54
2022-09-26T09:42:34.976Z,52.84
2022-09-26T09:45:31.078Z,52.51
2022-09-26T09:47:58.199Z,52.84
2022-09-26T09:51:14.064Z,53.10
2022-09-26T09:54:31.654Z,52.00
2022-09-26T09:57:26.590Z,52.04
2022-09-26T10:00:19.442Z,51.73
2022-09-26T10:03:27.425Z,52.16
2022-09-26T10:06:01.360Z,51.42
2022-09-26T10:08:41.591Z,50.99
2022-09-26T10:11:41.461Z,50.44
2022-09-26T10:14:46.395Z,49.38
2022-09-26T10:17:31.923Z,49.50
2022-09-26T10:20:41.192Z,49.75
2022-09-26T10:23:31.156Z,49.22
2022-09-26T10:26:05.397Z,48.74
2022-09-26T10:28:49.657Z,49.61
2022-09-26T10:31:29.512Z,49.58
2022-09-26T10:34:31.662Z,49.50
2022-09-26T10:37:25.945Z,49.96
2022-09-26T10:40:20.429Z,48.59
2022-09-26T10:42:47.405Z,48.30
2022-09-26T10:45:27.113Z,47.57
2022-09-26T10:48:37.624Z,48.13
2022-09-26T10:51:45.416Z,47.84
2022-09-26T10:54:18.740Z,47.77
2022-09-26T10:56:54.233Z,47.49
2022-09-26T10:59:31.441Z,47.21
2022-09-26T11:01:59.437Z,46.97
2022-09-26T11:04:48.316Z,47.03
2022-09-26T11:07:39.800Z,46.56
2022-09-26T11:10:25.838Z,47.28
2022-09-26T11:13:18.707Z,47.20
2022-09-26T11:16:02.120Z,46.94
2022-09-26T11:18:46.017Z,46.45
2022-09-26T11:21:35.098Z,47.37
2022-09-26T11:24:37.310Z,46.41
2022-09-26T11:27:34.684Z,46.30
2022-09-26T11:30:20.846Z,46.48
2022-09-26T11:32:57.987Z,46.32
2022-09-26T11:36:29.459Z,45.92
2022-09-26T11:38:57.864Z,45.54
2022-09-26T11:41:48.802Z,45.09
2022-09-26T11:44:33.661Z,45.64
2022-09-26T11:48:06.662Z,44.85
2022-09-26T11:51:36.676Z,45.55
2022-09-26T11:54:33.388Z,45.59
2022-09-26T11:57:49.269Z,45.70
2022-09-26T12:00:27.286Z,46.16
2022-09-26T12:03:46.816Z,45.27
2022-09-26T12:06:55.965Z,44.13
2022-09-26T12:09:37.252Z,44.75
2022-09-26T12:12:15.883Z,44.74
2022-09-26T12:15:12.792Z,44.99
2022-09-26T12:18:15.773Z,44.59
2022-09-26T12:21:12.494Z,44.78
2022-09-26T12:23:54.483Z,44.10
2022-09-26T12:26:44.269Z,44.45
2022-09-26T12:29:24.554Z,43.95
2022-09-26T12:32:24.715Z,44.23
2022-09-26T12:35:04.094Z,44.14
2022-09-26T12:38:07.061Z,43.72
2022-09-26T12:40:53.378Z,43.58
2022-09-26T12:44:33.968Z,44.14
2022-09-26T12:47:26.893Z,44.07
2022-09-26T12:50:15.956Z,44.45
2022-09-26T12:53:14.000Z,44.32
2022-09-26T12:55:55.560Z,43.90
2022-09-26T12:58:58.982Z,42.95
2022-09-26T13:01:44.969Z,43.13
2022-09-26T13:04:59.142Z,43.26
2022-09-26T13:07:45.130Z,43.77
2022-09-26T13:10:36.529Z,43.77
2022-09-26T13:13:38.972Z,44.19
2022-09-26T13:17:05.866Z,44.11
2022-09-26T13:19:53.278Z,43.96
2022-09-26T13:22:41.264Z,43.60
2022-09-26T13:25:11.088Z,43.85
2022-09-26T13:27:57.928Z,44.32
2022-09-26T13:30:35.636Z,44.48
2022-09-26T13:33:29.957Z,44.29
2022-09-26T13:35:59.456Z,43.91
2022-09-26T13:38:53.373Z,43.59
2022-09-26T13:41:53.931Z,42.91
2022-09-26T13:44:29.552Z,42.78
2022-09-26T13:47:07.618Z,43.08
2022-09-26T13:49:58.602Z,42.43
2022-09-26T13:52:52.326Z,42.57
2022-09-26T13:55:21.829Z,41.97
2022-09-26T13:58:03.614Z,42.33
2022-09-26T14:00:30.393Z,42.40
2022-09-26T14:03:18.471Z,42.40
2022-09-26T14:05:49.201Z,42.16
2022-09-26T14:08:43.480Z,42.14
2022-09-26T14:11:34.206Z,42.12
2022-09-26T14:14:19.133Z,42.44
2022-09-26T14:16:47.939Z,42.86
2022-09-26T14:19:41.222Z,42.42
2022-09-26T14:22:20.673Z,42.17
2022-09-26T14:24:48.783Z,42.29
2022-09-26T14:27:28.831Z,42.05
2022-09-26T14:30:29.243Z,42.33
2022-09-26T14:33:02.670Z,42.01
2022-09-26T14:35:35.403Z,41.81
2022-09-26T14:38:15.415Z,42.52
2022-09-26T14:40:56.167Z,42.17
2022-09-26T14:43:28.135Z,42.69
2022-09-26T14:46:13.956Z,42.21
2022-09-26T14:48:43.133Z,42.32
2022-09-26T14:51:15.572Z,42.33
2022-09-26T14:53:48.374Z,42.40
2022-09-26T14:56:32.449Z,42.53
2022-09-26T14:59:39.939Z,42.84
2022-09-26T15:02:27.996Z,42.68
2022-09-26T15:05:09.689Z,42.99
2022-09-26T15:07:47.034Z,43.06
2022-09-26T15:10:13.860Z,42.98
2022-09-26T15:12:50.008Z,43.05
2022-09-26T15:15:47.261Z,43.21
2022-09-26T15:18:28.214Z,42.87
2022-09-26T15:21:04.749Z,43.24
2022-09-26T15:23:34.667Z,43.50
2022-09-26T15:26:02.792Z,43.12
2022-09-26T15:28:34.482Z,43.22
2022-09-26T15:31:22.614Z,42.97
2022-09-26T15:34:04.364Z,43.12
2022-09-26T15:36:34.460Z,43.10
2022-09-26T15:39:25.140Z,43.01
2022-09-26T15:42:10.228Z,42.93
2022-09-26T15:44:46.127Z,42.70
2022-09-26T15:47:29.188Z,42.96
2022-09-26T15:50:12.302Z,43.21
2022-09-26T15:52:49.244Z,43.12
2022-09-26T15:55:20.975Z,43.51
2022-09-26T15:57:51.839Z,43.66
2022-09-26T16:00:19.240Z,43.68
2022-09-26T16:02:47.009Z,43.85
2022-09-26T16:05:14.975Z,43.99
2022-09-26T16:07:49.171Z,44.18
2022-09-26T16:10:28.495Z,43.88
2022-09-26T16:12:58.245Z,44.15
2022-09-26T16:15:29.728Z,44.10
2022-09-26T16:17:58.669Z,43.92
2022-09-26T16:20:31.658Z,43.70
2022-09-26T16:23:04.743Z,44.01
2022-09-26T16:25:47.567Z,43.90
2022-09-26T16:28:15.604Z,44.09
2022-09-26T16:30:45.694Z,44.08
2022-09-26T16:33:32.320Z,44.10
2022-09-26T16:36:24.411Z,43.63
2022-09-26T16:39:03.771Z,43.87
2022-09-26T16:44:40.308Z,43.81
2022-09-26T16:47:42.879Z,44.64
2022-09-26T16:50:31.162Z,43.82
2022-09-26T16:52:58.250Z,44.02
2022-09-26T16:55:26.347Z,43.57
2022-09-26T16:58:02.057Z,43.63
2022-09-26T17:00:52.589Z,43.96
2022-09-26T17:03:31.032Z,43.87
2022-09-26T17:05:59.982Z,43.84
2022-09-26T17:08:28.250Z,44.03
2022-09-26T17:11:00.216Z,43.63
2022-09-26T17:13:31.013Z,43.91
2022-09-26T17:16:01.033Z,43.68
2022-09-26T17:18:29.366Z,43.90
2022-09-26T17:20:58.868Z,43.70
2022-09-26T17:23:42.306Z,43.87
2022-09-26T17:26:19.784Z,43.58
2022-09-26T17:28:46.850Z,43.50
2022-09-26T17:31:19.932Z,44.38
2022-09-26T17:33:51.459Z,43.81
2022-09-26T17:36:29.283Z,44.32
2022-09-26T17:38:59.402Z,44.41
2022-09-26T17:41:27.821Z,44.05
2022-09-26T17:44:00.965Z,44.06
2022-09-26T17:46:28.810Z,44.53
2022-09-26T17:48:56.349Z,44.43
2022-09-26T17:51:24.278Z,44.11
2022-09-26T17:53:52.197Z,44.49
2022-09-26T17:56:20.188Z,44.29
2022-09-26T17:58:48.800Z,44.33
2022-09-26T18:01:30.337Z,43.83
2022-09-26T18:04:03.824Z,44.38
2022-09-26T18:06:32.870Z,44.13
2022-09-26T18:09:10.137Z,44.64
2022-09-26T18:11:38.348Z,45.13
2022-09-26T18:14:06.810Z,45.31
2022-09-26T18:16:33.743Z,45.01
2022-09-26T18:19:04.696Z,45.03
2022-09-26T18:21:34.907Z,44.78
2022-09-26T18:24:06.389Z,44.99
2022-09-26T18:26:42.224Z,45.06
2022-09-26T18:29:13.501Z,44.41
2022-09-26T18:31:41.645Z,44.54
2022-09-26T18:34:19.883Z,45.16
2022-09-26T18:36:48.869Z,44.74
2022-09-26T18:39:15.940Z,44.81
2022-09-26T18:41:45.016Z,45.33
2022-09-26T18:44:20.195Z,45.35
2022-09-26T18:46:49.023Z,45.02
2022-09-26T18:49:17.393Z,45.49
2022-09-26T18:51:45.802Z,45.10
2022-09-26T18:54:16.153Z,45.46
2022-09-26T18:57:09.316Z,45.40
2022-09-26T18:59:36.194Z,45.10
2022-09-26T19:02:04.762Z,45.08
2022-09-26T19:04:32.335Z,45.29
2022-09-26T19:07:01.454Z,45.48
2022-09-26T19:09:34.363Z,44.83
2022-09-26T19:12:02.465Z,45.14
2022-09-26T19:14:31.129Z,45.48
2022-09-26T19:16:58.421Z,45.16
2022-09-26T19:19:26.662Z,45.11
2022-09-26T19:22:11.732Z,45.15
2022-09-26T19:24:50.548Z,45.27
2022-09-26T19:27:23.774Z,45.17
2022-09-26T19:30:01.960Z,45.02
2022-09-26T19:32:45.055Z,45.06
2022-09-26T19:35:17.000Z,44.76
2022-09-26T19:37:43.870Z,45.50
2022-09-26T19:40:16.413Z,45.04
2022-09-26T19:42:43.404Z,45.59
2022-09-26T19:45:12.960Z,45.52
2022-09-26T19:47:43.546Z,45.31
2022-09-26T19:50:19.770Z,45.52
2022-09-26T19:52:47.623Z,45.63
2022-09-26T19:55:18.801Z,45.86
2022-09-26T19:57:45.729Z,46.50
2022-09-26T20:00:15.691Z,45.96
2022-09-26T20:02:42.791Z,46.33
2022-09-26T20:05:20.261Z,46.48
2022-09-26T20:07:47.695Z,46.35
2022-09-26T20:10:21.612Z,46.64
2022-09-26T20:12:48.630Z,46.53
2022-09-26T20:15:18.015Z,46.66
2022-09-26T20:17:45.857Z,46.86
2022-09-26T20:20:20.349Z,47.12
2022-09-26T20:22:47.508Z,47.07
2022-09-26T20:25:25.847Z,47.46
2022-09-26T20:27:54.388Z,47.24
2022-09-26T20:30:39.810Z,47.65
2022-09-26T20:33:07.161Z,47.47
2022-09-26T20:35:38.228Z,47.82
2022-09-26T20:38:07.980Z,48.01
2022-09-26T20:40:35.619Z,48.06
2022-09-26T20:43:10.205Z,47.64
2022-09-26T20:45:40.833Z,48.34
2022-09-26T20:48:17.297Z,48.39
2022-09-26T20:50:44.440Z,47.99
2022-09-26T20:53:29.543Z,48.52
2022-09-26T20:55:56.457Z,48.18
2022-09-26T20:58:23.935Z,48.60
2022-09-26T21:00:52.948Z,48.62
2022-09-26T21:03:25.088Z,48.96
2022-09-26T21:05:52.308Z,48.70
2022-09-26T21:08:28.968Z,48.94
2022-09-26T21:10:56.378Z,49.25
2022-09-26T21:13:23.595Z,49.26
2022-09-26T21:15:52.372Z,48.99
2022-09-26T21:18:29.225Z,49.22
2022-09-26T21:21:04.374Z,49.57
2022-09-26T21:23:54.646Z,49.14
2022-09-26T21:26:25.130Z,49.73
2022-09-26T21:28:53.733Z,49.30
2022-09-26T21:31:31.627Z,49.62
2022-09-26T21:34:00.209Z,49.49
2022-09-26T21:36:35.440Z,49.89
2022-09-26T21:39:02.479Z,49.53
2022-09-26T21:41:29.865Z,49.86
2022-09-26T21:44:02.723Z,49.85
2022-09-26T21:46:29.652Z,49.73
2022-09-26T21:48:56.542Z,49.55
2022-09-26T21:51:27.587Z,49.93
2022-09-26T21:54:34.647Z,49.63
2022-09-26T21:57:13.097Z,49.61
2022-09-26T21:59:40.860Z,49.84
2022-09-26T22:02:07.816Z,49.69
2022-09-26T22:04:34.916Z,49.92
2022-09-26T22:07:02.048Z,49.51
2022-09-26T22:09:28.941Z,49.80
2022-09-26T22:11:55.794Z,49.56
2022-09-26T22:14:22.667Z,49.61
2022-09-26T22:16:49.625Z,49.61
2022-09-26T22:19:16.934Z,49.62
2022-09-26T22:21:43.902Z,49.19
2022-09-26T22:24:11.133Z,49.80
2022-09-26T22:26:38.029Z,49.51
2022-09-26T22:29:05.150Z,49.86
2022-09-26T22:31:32.039Z,49.41
2022-09-26T22:34:00.097Z,49.78
2022-09-26T22:36:27.725Z,49.48
2022-09-26T22:38:54.857Z,49.84
2022-09-26T22:41:21.920Z,49.75
2022-09-26T22:43:49.283Z,49.53
2022-09-26T22:46:16.423Z,50.12
2022-09-26T22:48:46.782Z,49.71
2022-09-26T22:51:15.763Z,49.35
2022-09-26T22:53:44.455Z,49.48
2022-09-26T22:56:14.897Z,49.60
2022-09-26T22:58:49.248Z,49.64
2022-09-26T23:01:23.975Z,49.46
2022-09-26T23:03:54.633Z,49.76
2022-09-26T23:06:23.074Z,49.66
2022-09-26T23:08:50.915Z,49.78
2022-09-26T23:11:18.363Z,50.08
2022-09-26T23:13:46.351Z,49.71
2022-09-26T23:16:17.168Z,49.97
2022-09-26T23:18:44.767Z,49.85
2022-09-26T23:21:14.920Z,50.08
2022-09-26T23:23:51.032Z,49.69
2022-09-26T23:26:30.218Z,49.89
2022-09-26T23:28:58.395Z,50.16
2022-09-26T23:31:27.550Z,50.00
2022-09-26T23:33:55.016Z,49.87
2022-09-26T23:36:22.485Z,49.83
2022-09-26T23:38:49.921Z,50.37
2022-09-26T23:41:17.103Z,50.14
2022-09-26T23:43:46.246Z,50.46
2022-09-26T23:46:13.243Z,50.00
2022-09-26T23:48:40.404Z,50.09
2022-09-26T23:51:07.859Z,50.29
2022-09-26T23:53:35.386Z,50.26
2022-09-26T23:56:06.852Z,50.42
2022-09-26T23:58:34.224Z,50.70
